sensor_id;sensor_type;location;lat;lon;timestamp;P1;durP1;ratioP1;P2;durP2;ratioP2
23506;SDS011;11930;53.076;18.250;2023-05-29T00:01:22;6.37;;;3.33;;
23506;SDS011;11930;53.076;18.250;2023-05-29T00:03:49;9.57;;;3.73;;
23506;SDS011;11930;53.076;18.250;2023-05-29T00:06:16;7.17;;;3.77;;
23506;SDS011;11930;53.076;18.250;2023-05-29T00:08:43;6.33;;;3.30;;
23506;SDS011;11930;53.076;18.250;2023-05-29T00:11:09;9.20;;;3.23;;
23506;SDS011;11930;53.076;18.250;2023-05-29T00:13:35;6.20;;;3.27;;
23506;SDS011;11930;53.076;18.250;2023-05-29T00:16:01;6.43;;;2.90;;
23506;SDS011;11930;53.076;18.250;2023-05-29T00:18:29;8.70;;;3.40;;
23506;SDS011;11930;53.076;18.250;2023-05-29T00:20:54;7.87;;;3.40;;
23506;SDS011;11930;53.076;18.250;2023-05-29T00:23:21;11.60;;;3.27;;
23506;SDS011;11930;53.076;18.250;2023-05-29T00:25:47;6.63;;;3.20;;
23506;SDS011;11930;53.076;18.250;2023-05-29T00:28:13;6.47;;;3.50;;
23506;SDS011;11930;53.076;18.250;2023-05-29T00:30:39;8.33;;;3.43;;
23506;SDS011;11930;53.076;18.250;2023-05-29T00:33:05;7.53;;;3.47;;
23506;SDS011;11930;53.076;18.250;2023-05-29T00:35:32;6.27;;;3.33;;
23506;SDS011;11930;53.076;18.250;2023-05-29T00:37:58;6.17;;;3.43;;
23506;SDS011;11930;53.076;18.250;2023-05-29T00:40:24;7.93;;;3.47;;
23506;SDS011;11930;53.076;18.250;2023-05-29T00:42:51;6.60;;;3.37;;
23506;SDS011;11930;53.076;18.250;2023-05-29T00:45:17;8.50;;;3.97;;
23506;SDS011;11930;53.076;18.250;2023-05-29T00:47:43;6.30;;;3.27;;
23506;SDS011;11930;53.076;18.250;2023-05-29T00:50:11;9.13;;;3.37;;
23506;SDS011;11930;53.076;18.250;2023-05-29T00:52:39;8.77;;;4.10;;
23506;SDS011;11930;53.076;18.250;2023-05-29T00:55:08;6.40;;;3.33;;
23506;SDS011;11930;53.076;18.250;2023-05-29T00:57:35;8.23;;;3.47;;
23506;SDS011;11930;53.076;18.250;2023-05-29T01:00:03;7.00;;;3.60;;
23506;SDS011;11930;53.076;18.250;2023-05-29T01:02:34;7.77;;;3.47;;
23506;SDS011;11930;53.076;18.250;2023-05-29T01:05:19;7.07;;;3.30;;
23506;SDS011;11930;53.076;18.250;2023-05-29T01:07:45;7.77;;;3.57;;
23506;SDS011;11930;53.076;18.250;2023-05-29T01:10:12;6.37;;;3.37;;
23506;SDS011;11930;53.076;18.250;2023-05-29T01:21:11;6.83;;;3.83;;
23506;SDS011;11930;53.076;18.250;2023-05-29T01:26:41;5.87;;;3.60;;
23506;SDS011;11930;53.076;18.250;2023-05-29T01:29:18;7.43;;;3.80;;
23506;SDS011;11930;53.076;18.250;2023-05-29T01:31:48;8.97;;;4.23;;
23506;SDS011;11930;53.076;18.250;2023-05-29T01:34:15;7.90;;;4.07;;
23506;SDS011;11930;53.076;18.250;2023-05-29T01:36:43;8.67;;;4.00;;
23506;SDS011;11930;53.076;18.250;2023-05-29T01:39:09;11.13;;;5.03;;
23506;SDS011;11930;53.076;18.250;2023-05-29T01:41:36;8.73;;;4.93;;
23506;SDS011;11930;53.076;18.250;2023-05-29T01:44:06;10.83;;;6.03;;
23506;SDS011;11930;53.076;18.250;2023-05-29T01:46:39;10.33;;;5.93;;
23506;SDS011;11930;53.076;18.250;2023-05-29T01:49:06;11.50;;;5.43;;
23506;SDS011;11930;53.076;18.250;2023-05-29T01:51:33;9.60;;;5.57;;
23506;SDS011;11930;53.076;18.250;2023-05-29T01:54:00;10.53;;;5.30;;
23506;SDS011;11930;53.076;18.250;2023-05-29T01:56:27;11.13;;;5.43;;
23506;SDS011;11930;53.076;18.250;2023-05-29T01:58:54;12.17;;;5.33;;
23506;SDS011;11930;53.076;18.250;2023-05-29T02:01:22;19.50;;;6.67;;
23506;SDS011;11930;53.076;18.250;2023-05-29T02:03:48;27.07;;;7.43;;
23506;SDS011;11930;53.076;18.250;2023-05-29T02:06:15;17.87;;;7.03;;
23506;SDS011;11930;53.076;18.250;2023-05-29T02:08:41;21.30;;;6.43;;
23506;SDS011;11930;53.076;18.250;2023-05-29T02:11:07;15.43;;;6.47;;
23506;SDS011;11930;53.076;18.250;2023-05-29T02:13:33;14.13;;;6.30;;
23506;SDS011;11930;53.076;18.250;2023-05-29T02:16:00;16.67;;;6.03;;
23506;SDS011;11930;53.076;18.250;2023-05-29T02:18:26;9.90;;;4.93;;
23506;SDS011;11930;53.076;18.250;2023-05-29T02:20:52;14.37;;;5.77;;
23506;SDS011;11930;53.076;18.250;2023-05-29T02:23:21;9.80;;;5.20;;
23506;SDS011;11930;53.076;18.250;2023-05-29T02:25:47;14.20;;;5.70;;
23506;SDS011;11930;53.076;18.250;2023-05-29T02:28:13;13.43;;;5.10;;
23506;SDS011;11930;53.076;18.250;2023-05-29T02:30:39;9.00;;;5.03;;
23506;SDS011;11930;53.076;18.250;2023-05-29T02:33:08;9.33;;;5.10;;
23506;SDS011;11930;53.076;18.250;2023-05-29T02:35:34;9.27;;;4.70;;
23506;SDS011;11930;53.076;18.250;2023-05-29T02:38:00;9.27;;;5.00;;
23506;SDS011;11930;53.076;18.250;2023-05-29T02:40:26;12.73;;;4.77;;
23506;SDS011;11930;53.076;18.250;2023-05-29T02:42:52;8.77;;;4.23;;
23506;SDS011;11930;53.076;18.250;2023-05-29T02:45:21;8.60;;;4.73;;
23506;SDS011;11930;53.076;18.250;2023-05-29T02:47:48;9.87;;;4.50;;
23506;SDS011;11930;53.076;18.250;2023-05-29T02:50:14;10.60;;;5.20;;
23506;SDS011;11930;53.076;18.250;2023-05-29T02:52:41;12.97;;;4.60;;
23506;SDS011;11930;53.076;18.250;2023-05-29T02:55:07;9.77;;;4.57;;
23506;SDS011;11930;53.076;18.250;2023-05-29T02:57:33;10.20;;;4.50;;
23506;SDS011;11930;53.076;18.250;2023-05-29T02:59:59;8.13;;;4.20;;
23506;SDS011;11930;53.076;18.250;2023-05-29T03:02:26;10.33;;;4.60;;
23506;SDS011;11930;53.076;18.250;2023-05-29T03:04:52;7.07;;;4.40;;
23506;SDS011;11930;53.076;18.250;2023-05-29T03:07:19;8.97;;;4.90;;
23506;SDS011;11930;53.076;18.250;2023-05-29T03:09:45;9.13;;;4.63;;
23506;SDS011;11930;53.076;18.250;2023-05-29T03:12:11;8.83;;;4.40;;
23506;SDS011;11930;53.076;18.250;2023-05-29T03:14:37;13.40;;;4.83;;
23506;SDS011;11930;53.076;18.250;2023-05-29T03:17:08;10.03;;;4.77;;
23506;SDS011;11930;53.076;18.250;2023-05-29T03:19:34;11.07;;;5.00;;
23506;SDS011;11930;53.076;18.250;2023-05-29T03:22:00;9.80;;;4.73;;
23506;SDS011;11930;53.076;18.250;2023-05-29T03:24:27;12.80;;;5.43;;
23506;SDS011;11930;53.076;18.250;2023-05-29T03:26:53;22.17;;;5.93;;
23506;SDS011;11930;53.076;18.250;2023-05-29T03:29:19;56.23;;;9.50;;
23506;SDS011;11930;53.076;18.250;2023-05-29T03:31:45;48.10;;;10.00;;
23506;SDS011;11930;53.076;18.250;2023-05-29T03:34:17;37.57;;;7.00;;
23506;SDS011;11930;53.076;18.250;2023-05-29T03:36:51;46.43;;;8.63;;
23506;SDS011;11930;53.076;18.250;2023-05-29T03:39:18;34.10;;;8.10;;
23506;SDS011;11930;53.076;18.250;2023-05-29T03:41:45;30.20;;;6.87;;
23506;SDS011;11930;53.076;18.250;2023-05-29T03:44:12;21.43;;;5.83;;
23506;SDS011;11930;53.076;18.250;2023-05-29T03:46:38;15.47;;;5.10;;
23506;SDS011;11930;53.076;18.250;2023-05-29T03:49:04;18.63;;;5.80;;
23506;SDS011;11930;53.076;18.250;2023-05-29T03:51:32;21.87;;;5.93;;
23506;SDS011;11930;53.076;18.250;2023-05-29T03:53:58;22.77;;;5.53;;
23506;SDS011;11930;53.076;18.250;2023-05-29T03:56:24;26.50;;;5.97;;
23506;SDS011;11930;53.076;18.250;2023-05-29T03:58:52;20.40;;;4.90;;
23506;SDS011;11930;53.076;18.250;2023-05-29T04:01:19;17.17;;;4.88;;
23506;SDS011;11930;53.076;18.250;2023-05-29T04:03:45;15.43;;;5.20;;
23506;SDS011;11930;53.076;18.250;2023-05-29T04:06:12;10.65;;;4.38;;
23506;SDS011;11930;53.076;18.250;2023-05-29T04:08:39;13.57;;;4.85;;
23506;SDS011;11930;53.076;18.250;2023-05-29T04:11:05;10.50;;;4.47;;
23506;SDS011;11930;53.076;18.250;2023-05-29T04:13:31;11.68;;;4.65;;
23506;SDS011;11930;53.076;18.250;2023-05-29T04:15:58;8.65;;;3.97;;
23506;SDS011;11930;53.076;18.250;2023-05-29T04:18:24;8.80;;;4.57;;
23506;SDS011;11930;53.076;18.250;2023-05-29T04:20:51;10.80;;;4.25;;
23506;SDS011;11930;53.076;18.250;2023-05-29T04:23:19;12.02;;;4.55;;
23506;SDS011;11930;53.076;18.250;2023-05-29T04:25:46;10.00;;;4.45;;
23506;SDS011;11930;53.076;18.250;2023-05-29T04:28:15;8.10;;;3.95;;
23506;SDS011;11930;53.076;18.250;2023-05-29T04:30:41;7.45;;;4.10;;
23506;SDS011;11930;53.076;18.250;2023-05-29T04:33:07;8.25;;;4.22;;
23506;SDS011;11930;53.076;18.250;2023-05-29T04:35:35;8.90;;;4.25;;
23506;SDS011;11930;53.076;18.250;2023-05-29T04:38:05;6.50;;;3.53;;
23506;SDS011;11930;53.076;18.250;2023-05-29T04:40:32;7.63;;;4.07;;
23506;SDS011;11930;53.076;18.250;2023-05-29T04:42:59;8.85;;;3.75;;
23506;SDS011;11930;53.076;18.250;2023-05-29T04:45:26;6.60;;;3.25;;
23506;SDS011;11930;53.076;18.250;2023-05-29T04:47:53;7.75;;;3.03;;
23506;SDS011;11930;53.076;18.250;2023-05-29T04:50:21;6.60;;;3.40;;
23506;SDS011;11930;53.076;18.250;2023-05-29T04:52:48;7.25;;;2.95;;
23506;SDS011;11930;53.076;18.250;2023-05-29T04:55:15;8.93;;;3.65;;
23506;SDS011;11930;53.076;18.250;2023-05-29T04:57:42;10.68;;;3.25;;
23506;SDS011;11930;53.076;18.250;2023-05-29T05:00:09;7.72;;;3.20;;
23506;SDS011;11930;53.076;18.250;2023-05-29T05:02:43;7.47;;;2.83;;
23506;SDS011;11930;53.076;18.250;2023-05-29T05:05:11;9.20;;;3.35;;
23506;SDS011;11930;53.076;18.250;2023-05-29T05:07:38;11.52;;;3.85;;
23506;SDS011;11930;53.076;18.250;2023-05-29T05:10:04;8.02;;;3.75;;
23506;SDS011;11930;53.076;18.250;2023-05-29T05:12:31;9.70;;;3.67;;
23506;SDS011;11930;53.076;18.250;2023-05-29T05:15:02;11.02;;;3.72;;
23506;SDS011;11930;53.076;18.250;2023-05-29T05:17:30;11.95;;;3.67;;
23506;SDS011;11930;53.076;18.250;2023-05-29T05:19:56;11.95;;;3.88;;
23506;SDS011;11930;53.076;18.250;2023-05-29T05:22:22;11.43;;;3.92;;
23506;SDS011;11930;53.076;18.250;2023-05-29T05:24:49;11.98;;;4.35;;
23506;SDS011;11930;53.076;18.250;2023-05-29T05:27:18;8.55;;;3.72;;
23506;SDS011;11930;53.076;18.250;2023-05-29T05:29:43;7.10;;;3.67;;
23506;SDS011;11930;53.076;18.250;2023-05-29T05:32:10;6.03;;;3.33;;
23506;SDS011;11930;53.076;18.250;2023-05-29T05:34:36;7.45;;;3.25;;
23506;SDS011;11930;53.076;18.250;2023-05-29T05:37:02;6.85;;;3.53;;
23506;SDS011;11930;53.076;18.250;2023-05-29T05:39:29;8.05;;;3.35;;
23506;SDS011;11930;53.076;18.250;2023-05-29T05:41:55;6.28;;;3.65;;
23506;SDS011;11930;53.076;18.250;2023-05-29T05:44:40;6.05;;;3.30;;
23506;SDS011;11930;53.076;18.250;2023-05-29T05:47:10;19.85;;;5.10;;
23506;SDS011;11930;53.076;18.250;2023-05-29T05:49:36;11.80;;;3.83;;
23506;SDS011;11930;53.076;18.250;2023-05-29T05:52:02;11.57;;;3.90;;
23506;SDS011;11930;53.076;18.250;2023-05-29T05:54:28;8.38;;;3.95;;
23506;SDS011;11930;53.076;18.250;2023-05-29T05:56:55;12.43;;;4.15;;
23506;SDS011;11930;53.076;18.250;2023-05-29T05:59:20;10.15;;;4.38;;
23506;SDS011;11930;53.076;18.250;2023-05-29T06:01:47;18.77;;;4.35;;
23506;SDS011;11930;53.076;18.250;2023-05-29T06:04:13;10.05;;;3.80;;
23506;SDS011;11930;53.076;18.250;2023-05-29T06:06:40;7.00;;;3.58;;
23506;SDS011;11930;53.076;18.250;2023-05-29T06:09:07;7.82;;;3.63;;
23506;SDS011;11930;53.076;18.250;2023-05-29T06:11:35;8.48;;;3.55;;
23506;SDS011;11930;53.076;18.250;2023-05-29T06:14:02;10.18;;;3.83;;
23506;SDS011;11930;53.076;18.250;2023-05-29T06:16:28;8.98;;;3.50;;
23506;SDS011;11930;53.076;18.250;2023-05-29T06:18:55;9.27;;;3.63;;
23506;SDS011;11930;53.076;18.250;2023-05-29T06:21:23;14.68;;;3.55;;
23506;SDS011;11930;53.076;18.250;2023-05-29T06:23:54;6.65;;;3.03;;
23506;SDS011;11930;53.076;18.250;2023-05-29T06:26:20;6.05;;;2.80;;
23506;SDS011;11930;53.076;18.250;2023-05-29T06:28:48;5.45;;;2.65;;
23506;SDS011;11930;53.076;18.250;2023-05-29T06:31:14;7.88;;;2.92;;
23506;SDS011;11930;53.076;18.250;2023-05-29T06:33:40;6.50;;;2.95;;
23506;SDS011;11930;53.076;18.250;2023-05-29T06:36:07;7.72;;;2.80;;
23506;SDS011;11930;53.076;18.250;2023-05-29T06:38:34;5.65;;;2.80;;
23506;SDS011;11930;53.076;18.250;2023-05-29T06:41:00;9.73;;;3.00;;
23506;SDS011;11930;53.076;18.250;2023-05-29T06:43:27;6.50;;;3.20;;
23506;SDS011;11930;53.076;18.250;2023-05-29T06:45:56;5.88;;;3.30;;
23506;SDS011;11930;53.076;18.250;2023-05-29T06:48:22;18.15;;;3.88;;
23506;SDS011;11930;53.076;18.250;2023-05-29T06:50:49;9.07;;;3.22;;
23506;SDS011;11930;53.076;18.250;2023-05-29T06:53:36;8.15;;;3.00;;
23506;SDS011;11930;53.076;18.250;2023-05-29T06:56:04;6.85;;;3.30;;
23506;SDS011;11930;53.076;18.250;2023-05-29T06:58:32;5.60;;;3.17;;
23506;SDS011;11930;53.076;18.250;2023-05-29T07:04:25;7.53;;;3.22;;
23506;SDS011;11930;53.076;18.250;2023-05-29T07:06:51;11.63;;;3.50;;
23506;SDS011;11930;53.076;18.250;2023-05-29T07:09:18;10.60;;;3.45;;
23506;SDS011;11930;53.076;18.250;2023-05-29T07:11:45;6.70;;;3.40;;
23506;SDS011;11930;53.076;18.250;2023-05-29T07:14:11;7.20;;;3.35;;
23506;SDS011;11930;53.076;18.250;2023-05-29T07:16:38;11.57;;;3.90;;
23506;SDS011;11930;53.076;18.250;2023-05-29T07:19:06;6.50;;;3.70;;
23506;SDS011;11930;53.076;18.250;2023-05-29T07:21:36;5.68;;;3.50;;
23506;SDS011;11930;53.076;18.250;2023-05-29T07:24:04;5.47;;;3.10;;
23506;SDS011;11930;53.076;18.250;2023-05-29T07:26:30;7.45;;;3.72;;
23506;SDS011;11930;53.076;18.250;2023-05-29T07:28:57;7.40;;;3.35;;
23506;SDS011;11930;53.076;18.250;2023-05-29T07:31:23;7.03;;;3.50;;
23506;SDS011;11930;53.076;18.250;2023-05-29T07:33:51;6.63;;;3.40;;
23506;SDS011;11930;53.076;18.250;2023-05-29T07:36:19;9.88;;;3.60;;
23506;SDS011;11930;53.076;18.250;2023-05-29T07:38:49;6.93;;;3.45;;
23506;SDS011;11930;53.076;18.250;2023-05-29T07:41:17;8.50;;;4.82;;
23506;SDS011;11930;53.076;18.250;2023-05-29T07:43:50;9.07;;;4.65;;
23506;SDS011;11930;53.076;18.250;2023-05-29T07:46:19;8.35;;;3.92;;
23506;SDS011;11930;53.076;18.250;2023-05-29T07:48:47;10.30;;;4.20;;
23506;SDS011;11930;53.076;18.250;2023-05-29T07:51:13;15.20;;;5.10;;
23506;SDS011;11930;53.076;18.250;2023-05-29T07:53:44;8.95;;;4.03;;
23506;SDS011;11930;53.076;18.250;2023-05-29T07:56:11;7.88;;;3.25;;
23506;SDS011;11930;53.076;18.250;2023-05-29T07:58:38;6.03;;;3.20;;
23506;SDS011;11930;53.076;18.250;2023-05-29T08:01:06;12.93;;;4.28;;
23506;SDS011;11930;53.076;18.250;2023-05-29T08:03:34;8.35;;;3.78;;
23506;SDS011;11930;53.076;18.250;2023-05-29T08:06:03;18.88;;;4.45;;
23506;SDS011;11930;53.076;18.250;2023-05-29T08:08:29;7.93;;;3.22;;
23506;SDS011;11930;53.076;18.250;2023-05-29T08:10:57;8.80;;;3.67;;
23506;SDS011;11930;53.076;18.250;2023-05-29T08:13:23;6.47;;;3.10;;
23506;SDS011;11930;53.076;18.250;2023-05-29T08:15:50;6.68;;;2.88;;
23506;SDS011;11930;53.076;18.250;2023-05-29T08:18:15;7.05;;;3.60;;
23506;SDS011;11930;53.076;18.250;2023-05-29T08:20:42;5.22;;;2.85;;
23506;SDS011;11930;53.076;18.250;2023-05-29T08:23:08;7.45;;;3.42;;
23506;SDS011;11930;53.076;18.250;2023-05-29T08:25:34;5.47;;;3.08;;
23506;SDS011;11930;53.076;18.250;2023-05-29T08:28:00;7.47;;;3.50;;
23506;SDS011;11930;53.076;18.250;2023-05-29T08:30:26;12.68;;;3.90;;
23506;SDS011;11930;53.076;18.250;2023-05-29T08:32:52;16.90;;;4.28;;
23506;SDS011;11930;53.076;18.250;2023-05-29T08:35:18;4.57;;;3.10;;
23506;SDS011;11930;53.076;18.250;2023-05-29T08:37:44;6.38;;;2.88;;
23506;SDS011;11930;53.076;18.250;2023-05-29T08:40:10;6.25;;;2.90;;
23506;SDS011;11930;53.076;18.250;2023-05-29T08:42:40;6.47;;;2.75;;
23506;SDS011;11930;53.076;18.250;2023-05-29T08:45:28;5.07;;;2.88;;
23506;SDS011;11930;53.076;18.250;2023-05-29T08:47:56;10.77;;;3.72;;
23506;SDS011;11930;53.076;18.250;2023-05-29T08:50:25;15.73;;;3.65;;
23506;SDS011;11930;53.076;18.250;2023-05-29T08:52:52;4.30;;;2.65;;
23506;SDS011;11930;53.076;18.250;2023-05-29T08:55:18;38.20;;;6.50;;
23506;SDS011;11930;53.076;18.250;2023-05-29T08:57:44;8.77;;;2.85;;
23506;SDS011;11930;53.076;18.250;2023-05-29T09:00:11;9.98;;;3.30;;
23506;SDS011;11930;53.076;18.250;2023-05-29T09:02:38;5.93;;;2.90;;
23506;SDS011;11930;53.076;18.250;2023-05-29T09:05:05;4.40;;;2.33;;
23506;SDS011;11930;53.076;18.250;2023-05-29T09:07:32;3.65;;;2.30;;
23506;SDS011;11930;53.076;18.250;2023-05-29T09:09:59;4.65;;;2.50;;
23506;SDS011;11930;53.076;18.250;2023-05-29T09:12:26;5.18;;;2.70;;
23506;SDS011;11930;53.076;18.250;2023-05-29T09:14:52;6.07;;;2.92;;
23506;SDS011;11930;53.076;18.250;2023-05-29T09:17:18;6.35;;;2.78;;
23506;SDS011;11930;53.076;18.250;2023-05-29T09:19:44;5.75;;;2.78;;
23506;SDS011;11930;53.076;18.250;2023-05-29T09:22:11;5.07;;;2.47;;
23506;SDS011;11930;53.076;18.250;2023-05-29T09:24:42;7.75;;;2.53;;
23506;SDS011;11930;53.076;18.250;2023-05-29T09:27:11;7.03;;;2.90;;
23506;SDS011;11930;53.076;18.250;2023-05-29T09:29:38;4.40;;;2.45;;
23506;SDS011;11930;53.076;18.250;2023-05-29T09:32:08;5.90;;;2.83;;
23506;SDS011;11930;53.076;18.250;2023-05-29T09:34:35;5.70;;;2.47;;
23506;SDS011;11930;53.076;18.250;2023-05-29T09:37:05;5.45;;;2.50;;
23506;SDS011;11930;53.076;18.250;2023-05-29T09:39:46;3.85;;;2.40;;
23506;SDS011;11930;53.076;18.250;2023-05-29T09:42:13;4.45;;;2.55;;
23506;SDS011;11930;53.076;18.250;2023-05-29T09:44:42;4.90;;;2.50;;
23506;SDS011;11930;53.076;18.250;2023-05-29T09:47:20;5.55;;;2.20;;
23506;SDS011;11930;53.076;18.250;2023-05-29T09:49:47;7.43;;;2.47;;
23506;SDS011;11930;53.076;18.250;2023-05-29T09:52:13;4.22;;;2.20;;
23506;SDS011;11930;53.076;18.250;2023-05-29T09:54:41;5.30;;;2.50;;
23506;SDS011;11930;53.076;18.250;2023-05-29T09:57:12;5.70;;;2.60;;
23506;SDS011;11930;53.076;18.250;2023-05-29T09:59:44;4.45;;;2.40;;
23506;SDS011;11930;53.076;18.250;2023-05-29T10:02:12;7.03;;;2.58;;
23506;SDS011;11930;53.076;18.250;2023-05-29T10:04:40;4.53;;;2.53;;
23506;SDS011;11930;53.076;18.250;2023-05-29T10:07:15;5.57;;;2.60;;
23506;SDS011;11930;53.076;18.250;2023-05-29T10:09:59;3.28;;;2.20;;
23506;SDS011;11930;53.076;18.250;2023-05-29T10:12:27;4.55;;;2.90;;
23506;SDS011;11930;53.076;18.250;2023-05-29T10:14:56;12.73;;;3.30;;
23506;SDS011;11930;53.076;18.250;2023-05-29T10:17:25;5.47;;;2.60;;
23506;SDS011;11930;53.076;18.250;2023-05-29T10:19:56;7.40;;;2.50;;
23506;SDS011;11930;53.076;18.250;2023-05-29T10:22:24;20.88;;;4.35;;
23506;SDS011;11930;53.076;18.250;2023-05-29T10:24:52;5.82;;;3.10;;
23506;SDS011;11930;53.076;18.250;2023-05-29T10:27:18;8.00;;;2.83;;
23506;SDS011;11930;53.076;18.250;2023-05-29T10:29:49;6.55;;;2.88;;
23506;SDS011;11930;53.076;18.250;2023-05-29T10:38:09;10.68;;;2.80;;
23506;SDS011;11930;53.076;18.250;2023-05-29T10:40:45;4.78;;;2.80;;
23506;SDS011;11930;53.076;18.250;2023-05-29T10:43:32;5.00;;;2.60;;
23506;SDS011;11930;53.076;18.250;2023-05-29T10:45:58;5.50;;;2.72;;
23506;SDS011;11930;53.076;18.250;2023-05-29T10:50:54;4.88;;;2.67;;
23506;SDS011;11930;53.076;18.250;2023-05-29T10:53:25;4.57;;;2.63;;
23506;SDS011;11930;53.076;18.250;2023-05-29T10:55:52;8.30;;;2.90;;
23506;SDS011;11930;53.076;18.250;2023-05-29T10:58:19;5.47;;;2.88;;
23506;SDS011;11930;53.076;18.250;2023-05-29T11:00:46;4.97;;;2.53;;
23506;SDS011;11930;53.076;18.250;2023-05-29T11:03:17;5.97;;;2.80;;
23506;SDS011;11930;53.076;18.250;2023-05-29T11:06:05;5.75;;;3.00;;
23506;SDS011;11930;53.076;18.250;2023-05-29T11:08:43;7.57;;;2.80;;
23506;SDS011;11930;53.076;18.250;2023-05-29T11:11:12;5.45;;;2.70;;
23506;SDS011;11930;53.076;18.250;2023-05-29T11:13:39;5.32;;;2.92;;
23506;SDS011;11930;53.076;18.250;2023-05-29T11:18:41;5.72;;;2.78;;
23506;SDS011;11930;53.076;18.250;2023-05-29T11:21:15;4.38;;;2.63;;
23506;SDS011;11930;53.076;18.250;2023-05-29T11:24:04;5.85;;;2.55;;
23506;SDS011;11930;53.076;18.250;2023-05-29T11:26:32;7.10;;;2.65;;
23506;SDS011;11930;53.076;18.250;2023-05-29T11:29:04;10.18;;;3.15;;
23506;SDS011;11930;53.076;18.250;2023-05-29T11:31:33;5.03;;;2.38;;
23506;SDS011;11930;53.076;18.250;2023-05-29T11:34:00;4.78;;;2.17;;
23506;SDS011;11930;53.076;18.250;2023-05-29T11:36:33;4.05;;;2.22;;
23506;SDS011;11930;53.076;18.250;2023-05-29T11:38:59;5.78;;;2.63;;
23506;SDS011;11930;53.076;18.250;2023-05-29T11:41:26;6.47;;;2.50;;
23506;SDS011;11930;53.076;18.250;2023-05-29T11:43:56;5.72;;;2.70;;
23506;SDS011;11930;53.076;18.250;2023-05-29T11:46:28;5.38;;;2.25;;
23506;SDS011;11930;53.076;18.250;2023-05-29T11:48:57;6.20;;;2.40;;
23506;SDS011;11930;53.076;18.250;2023-05-29T11:51:27;11.10;;;3.08;;
23506;SDS011;11930;53.076;18.250;2023-05-29T11:53:53;4.70;;;2.33;;
23506;SDS011;11930;53.076;18.250;2023-05-29T11:56:24;5.03;;;2.55;;
23506;SDS011;11930;53.076;18.250;2023-05-29T11:58:51;6.75;;;2.50;;
23506;SDS011;11930;53.076;18.250;2023-05-29T12:01:23;3.95;;;2.42;;
23506;SDS011;11930;53.076;18.250;2023-05-29T12:03:50;5.47;;;2.20;;
23506;SDS011;11930;53.076;18.250;2023-05-29T12:06:30;7.60;;;2.47;;
23506;SDS011;11930;53.076;18.250;2023-05-29T12:08:59;9.02;;;2.55;;
23506;SDS011;11930;53.076;18.250;2023-05-29T12:11:26;3.53;;;1.90;;
23506;SDS011;11930;53.076;18.250;2023-05-29T12:13:55;6.65;;;2.50;;
23506;SDS011;11930;53.076;18.250;2023-05-29T12:16:28;4.60;;;2.10;;
23506;SDS011;11930;53.076;18.250;2023-05-29T12:18:59;13.63;;;3.65;;
23506;SDS011;11930;53.076;18.250;2023-05-29T12:21:26;5.03;;;2.17;;
23506;SDS011;11930;53.076;18.250;2023-05-29T12:23:53;9.38;;;2.40;;
23506;SDS011;11930;53.076;18.250;2023-05-29T12:26:23;4.75;;;2.30;;
23506;SDS011;11930;53.076;18.250;2023-05-29T12:28:51;15.82;;;3.45;;
23506;SDS011;11930;53.076;18.250;2023-05-29T12:31:27;9.68;;;2.53;;
23506;SDS011;11930;53.076;18.250;2023-05-29T12:33:57;4.47;;;2.42;;
23506;SDS011;11930;53.076;18.250;2023-05-29T12:36:26;4.40;;;2.03;;
23506;SDS011;11930;53.076;18.250;2023-05-29T12:38:52;4.25;;;1.90;;
23506;SDS011;11930;53.076;18.250;2023-05-29T12:41:25;17.83;;;3.22;;
23506;SDS011;11930;53.076;18.250;2023-05-29T12:43:53;5.25;;;2.25;;
23506;SDS011;11930;53.076;18.250;2023-05-29T12:46:23;7.43;;;2.40;;
23506;SDS011;11930;53.076;18.250;2023-05-29T12:48:52;7.50;;;2.63;;
23506;SDS011;11930;53.076;18.250;2023-05-29T12:51:22;4.55;;;2.05;;
23506;SDS011;11930;53.076;18.250;2023-05-29T12:53:49;5.85;;;2.42;;
23506;SDS011;11930;53.076;18.250;2023-05-29T12:56:16;4.55;;;1.98;;
23506;SDS011;11930;53.076;18.250;2023-05-29T12:58:42;4.60;;;2.03;;
23506;SDS011;11930;53.076;18.250;2023-05-29T13:01:14;7.25;;;2.72;;
23506;SDS011;11930;53.076;18.250;2023-05-29T13:03:42;5.85;;;2.22;;
23506;SDS011;11930;53.076;18.250;2023-05-29T13:06:09;3.75;;;2.28;;
23506;SDS011;11930;53.076;18.250;2023-05-29T13:08:36;21.95;;;4.25;;
23506;SDS011;11930;53.076;18.250;2023-05-29T13:11:02;17.52;;;2.92;;
23506;SDS011;11930;53.076;18.250;2023-05-29T13:13:28;4.60;;;1.88;;
23506;SDS011;11930;53.076;18.250;2023-05-29T13:15:54;3.90;;;2.15;;
23506;SDS011;11930;53.076;18.250;2023-05-29T13:18:20;9.13;;;2.72;;
23506;SDS011;11930;53.076;18.250;2023-05-29T13:20:46;6.43;;;2.20;;
23506;SDS011;11930;53.076;18.250;2023-05-29T13:23:12;5.40;;;1.90;;
23506;SDS011;11930;53.076;18.250;2023-05-29T13:25:38;5.43;;;2.00;;
23506;SDS011;11930;53.076;18.250;2023-05-29T13:28:04;7.40;;;2.10;;
23506;SDS011;11930;53.076;18.250;2023-05-29T13:30:30;7.07;;;2.45;;
23506;SDS011;11930;53.076;18.250;2023-05-29T13:32:56;7.68;;;2.20;;
23506;SDS011;11930;53.076;18.250;2023-05-29T13:35:23;11.10;;;2.38;;
23506;SDS011;11930;53.076;18.250;2023-05-29T13:37:49;3.58;;;2.05;;
23506;SDS011;11930;53.076;18.250;2023-05-29T13:40:16;5.38;;;2.00;;
23506;SDS011;11930;53.076;18.250;2023-05-29T13:42:41;5.82;;;2.15;;
23506;SDS011;11930;53.076;18.250;2023-05-29T13:45:08;9.48;;;2.72;;
23506;SDS011;11930;53.076;18.250;2023-05-29T13:47:34;7.70;;;2.50;;
23506;SDS011;11930;53.076;18.250;2023-05-29T13:50:01;6.00;;;2.58;;
23506;SDS011;11930;53.076;18.250;2023-05-29T13:52:27;2.85;;;1.95;;
23506;SDS011;11930;53.076;18.250;2023-05-29T13:54:53;5.63;;;1.98;;
23506;SDS011;11930;53.076;18.250;2023-05-29T13:57:20;5.55;;;1.80;;
23506;SDS011;11930;53.076;18.250;2023-05-29T13:59:46;3.67;;;2.00;;
23506;SDS011;11930;53.076;18.250;2023-05-29T14:02:12;5.82;;;2.10;;
23506;SDS011;11930;53.076;18.250;2023-05-29T14:04:38;3.65;;;1.90;;
23506;SDS011;11930;53.076;18.250;2023-05-29T14:07:04;3.45;;;1.90;;
23506;SDS011;11930;53.076;18.250;2023-05-29T14:09:31;5.60;;;2.10;;
23506;SDS011;11930;53.076;18.250;2023-05-29T14:11:58;3.75;;;1.77;;
23506;SDS011;11930;53.076;18.250;2023-05-29T14:14:24;4.25;;;1.80;;
23506;SDS011;11930;53.076;18.250;2023-05-29T14:16:51;4.68;;;2.03;;
23506;SDS011;11930;53.076;18.250;2023-05-29T14:19:18;6.32;;;2.30;;
23506;SDS011;11930;53.076;18.250;2023-05-29T14:21:44;5.72;;;2.17;;
23506;SDS011;11930;53.076;18.250;2023-05-29T14:24:11;4.40;;;1.88;;
23506;SDS011;11930;53.076;18.250;2023-05-29T14:26:38;4.65;;;2.25;;
23506;SDS011;11930;53.076;18.250;2023-05-29T14:29:04;3.60;;;1.98;;
23506;SDS011;11930;53.076;18.250;2023-05-29T14:31:31;6.20;;;2.40;;
23506;SDS011;11930;53.076;18.250;2023-05-29T14:33:57;17.63;;;3.47;;
23506;SDS011;11930;53.076;18.250;2023-05-29T14:36:23;6.00;;;2.50;;
23506;SDS011;11930;53.076;18.250;2023-05-29T14:38:49;5.38;;;2.28;;
23506;SDS011;11930;53.076;18.250;2023-05-29T14:41:15;3.95;;;2.10;;
23506;SDS011;11930;53.076;18.250;2023-05-29T14:43:42;11.25;;;2.60;;
23506;SDS011;11930;53.076;18.250;2023-05-29T14:46:08;7.50;;;2.28;;
23506;SDS011;11930;53.076;18.250;2023-05-29T14:48:35;4.68;;;1.92;;
23506;SDS011;11930;53.076;18.250;2023-05-29T14:51:04;4.15;;;1.88;;
23506;SDS011;11930;53.076;18.250;2023-05-29T14:53:30;3.97;;;1.80;;
23506;SDS011;11930;53.076;18.250;2023-05-29T14:55:57;4.25;;;1.95;;
23506;SDS011;11930;53.076;18.250;2023-05-29T14:58:23;5.43;;;1.80;;
23506;SDS011;11930;53.076;18.250;2023-05-29T15:00:49;4.25;;;1.77;;